Ride Results

Tom Quilty Gold Cup (07-06-1991)
Ride distance: 160.0 km

Outcomes - Tom Quilty Gold Cup (07-06-1991)
Division No. of Entries Retired / DNE Completed Withdrawn Ineligible V/O Percentage Completed
HW 49 - 25 3 - 21 51.02%
MW 144 - 83 11 - 50 57.64%
LW 50 - 31 2 - 17 62.00%
JN 16 - 9 2 - 5 56.25%
Totals 259 - 148 18 - 93 57.14%
Results - Tom Quilty Gold Cup (07-06-1991)
No. Rider Horse Place Time Leg Speeds Total
Km/Hr
H/R bpm
Heavyweight
35 Ray Tylee Waimeha Enterprise 1 14:15:00 7.8, 10.5, 11.1, 22.2 11.23 32, 40, 42, 44, 45 (Avg:42)
227 Chris Pollitt Monivae Warloch 2 14:15:01 8.5, 9.8, 10.9, 21.6 11.23 32, 43, 44, 44, 48 (Avg:44)
191 Rex Telford Henley Farm Zarif 3 14:56:00 7.0, 9.6, 12.1, 21.4 10.71 35, 47, 48, 52, 44 (Avg:47)
146 Rose Birrell Bara Park Brice 4 14:57:00 7.9, 9.6, 10.1, 21.4 10.70 30, 44, 44, 45, 49 (Avg:45)
236 William Mclennan Billabong Elkabu 4 14:57:00 8.0, 10.0, 10.5, 17.9 10.70 34, 48, 42, 44, 48 (Avg:45)
69 Mario Suprano Jindalee Jubal 6 15:12:00 8.4, 9.7, 10.3, 16.1 10.53 32, 48, 48, 58, 48 (Avg:50)
223 Allan Renner Edenfels Pepperina 7 16:00:00 7.9, 9.7, 10.2, 13.4 10.00 24, 42, 43, 47, 48 (Avg:45)
120 Don Boland Blue Bead Royal Reprise 8 16:25:00 6.7, 9.0, 11.2, 15.6 9.75 30, 44, 46, 44, 44 (Avg:44)
219 Roy Barsby Lawes Janna 9 17:22:00 7.4, 8.1, 9.1, 14.8 9.21 27, 45, 41, 40, 45 (Avg:42)
26 Phillip Haire Chelstar Sir Echo 10 17:34:00 7.2, 8.3, 9.9, 12.2 9.11 35, 46, 48, 52, 52 (Avg:49)
216 Bill Standfield Joseph 10 17:34:00 6.7, 8.6, 9.6, 13.7 9.11 31, 46, 41, 42, 42 (Avg:42)
9 Mike Oloughlin Lightwind Talia 12 18:27:00 7.1, 7.9, 8.9, 11.7 8.67 32, 46, 48, 42, 44 (Avg:45)
93 Paul Grieves Gilgelad 13 18:35:00 6.6, 8.4, 8.6, 12.4 8.61 32, 43, 47, 46, 43 (Avg:44)
63 Russell Adam Aloha Messiah 14 18:45:00 9.1, 8.4, 7.7, 8.9 8.53 30, 42, 46, 56, 48 (Avg:48)
169 Mark Chalker Yaraandoo Mayra 15 18:55:00 7.0, 8.3, 8.6, 10.4 8.46 32, 38, 51, 42, 35 (Avg:41)
253 Laurie Nicolle Laurjil Osca 16 19:06:00 5.8, 8.3, 9.3, 12.4 8.38 28, 44, 48, 55, 49 (Avg:49)
163 Robert Berry Palphar 17 19:48:00 6.7, 7.4, 7.3, 12.9 8.08 41, 42, 49, 43, 47 (Avg:45)
111 Rene Karrer Chip Chase Gemstone 17 19:48:00 5.7, 7.9, 8.4, 12.9 8.08 28, 38, 40, 35, 40 (Avg:38)
251 Keith Davenport Saffryn 19 20:06:00 6.6, 7.5, 7.5, 11.6 7.96 37, 50, 52, 51, 46 (Avg:49)
132 Percy Forrester Xanadu Carla 20 20:11:00 4.7, 8.0, 9.9, 14.5 7.93 32, 44, 49, 51, 50 (Avg:48)
58 Tanya Dunn Khaiyal Lincoln 21 20:26:00 5.6, 6.7, 9.0, 13.1 7.83 33, 42, 44, 50, 48 (Avg:46)
186 Henry Perry Ash 21 20:26:00 4.9, 7.4, 9.9, 13.1 7.83 35, 48, 45, 48, 48 (Avg:47)
252 Alistair McKeown Distant Echo 23 20:31:00 5.8, 7.2, 8.5, 11.7 7.80 38, 52, 51, 57, 51 (Avg:52)
73 Wayne Hegarty Hideaway Tramp 24 20:45:00 5.7, 7.4, 7.7, 12.1 7.71 32, 47, 47, 52, 47 (Avg:48)
61 John Howe Beau Gallant Omen 25 20:49:00 4.9, 8.0, 9.3, 11.7 7.69 33, 47, 46, 52, 50 (Avg:48)
248 Brian Trotman Silver Cloud Marquillo Lame L4 0:00:00 5.9, 8.9, 11.2, 10.3 - 32, 47, 50, 54, 48 (Avg:49)
47 Kerry Bouffier Sorahl Lame L3 0:00:00 7.0, 8.5, 9.3 - 34, 44, 42, 52 (Avg:46)
57 John Dunn Blythswood True Blue Lame L3 0:00:00 6.4, 7.1, 8.0 - 33, 42, 38, 48 (Avg:42)
79 Belinda Hopley Como Lame L3 0:00:00 6.7, 6.9, 7.7 - 48, 46, 45, 39 (Avg:43)
193 Norm Whitelaw Zane Lame L3 0:00:00 8.1, 9.5, 10.2 - 32, 48, 48, 50 (Avg:48)
11 Errol Bradford Woodside Lame L2 0:00:00 6.8, 7.7 - 42, 53, 46 (Avg:49)
215 Gordon Flaherty Sharahd Homer Withdrawn L2 0:00:00 - - 36, 46, 48 (Avg:47)
42 John Innes Ensueno Smokey Joe Withdrawn L2 0:00:00 - - 38, 48, 48 (Avg:48)
46 Ray Mitchell Joe Withdrawn L2 0:00:00 - - 38, 47, 40 (Avg:43)
151 Ian Arnold Kiewa Beau Lame L1 0:00:00 5.6 - 32, 45 (Avg:45)
88 Mark Cameron Loudoun Imari Lame L1 0:00:00 7.9 - 38, 48 (Avg:48)
76 Peter Cooper Windsor Park Court Jester Lame L1 0:00:00 9.0 - 40, 45 (Avg:45)
155 Steve Finnane Glenallan Zared Heart Rate L1 0:00:00 8.7 - 33, 59 (Avg:59)
185 Brian Keep Doran Park Kyalla Heart Rate L1 0:00:00 9.3 - 35, 60 (Avg:60)
87 Peter Kucera Casper Heart Rate L1 0:00:00 6.8 - 32, 62 (Avg:62)
242 Garry Lewis Franchesca Heart Rate L1 0:00:00 7.2 - 34, 60 (Avg:60)
140 Fritz Seehofer Silver Syrus Lame L1 0:00:00 7.0 - 32, 48 (Avg:48)
148 Ken Shepherd Kymish Fortitude Lame L1 0:00:00 7.5 - 31, 50 (Avg:50)
192 Laurence Telford Silver Heart Rate L1 0:00:00 8.4 - 36, 60 (Avg:60)
150 Fiona Finigan Sundance Lame P/R 0:00:00 - - 0
74 Wayne Hegarty Melody's Flight Lame P/R 0:00:00 - - 32
110 Malcolm Irvin Oats Lame P/R 0:00:00 - - 29
105 Harold L. Sandford Myall Em Lame P/R 0:00:00 - - 36
247 Doug Schmidt Ambrose Lame P/R 0:00:00 - - 30
Middleweight
65 Andrew Bailey Tantawanglo Hamal Zahab 1 10:58:00 10.8, 12.7, 15.8, 24.7 14.59 30, 40, 43, 43, 41 (Avg:41)
80 Amanda Harvey Windella Badi'a 2 12:05:00 10.5, 12.2, 13.7, 19.0 13.24 34, 42, 46, 56, 45 (Avg:47)
90 Graham Appleton Burren-dah Shanazan 3 12:22:00 10.6, 12.0, 11.9, 20.3 12.94 38, 42, 44, 48, 50 (Avg:46)
5 Wally Webb Telltale 4 12:55:00 10.8, 11.8, 10.0, 21.2 12.39 44, 46, 55, 51, 58 (Avg:52)
222 Scott Hill Craig Darroch Rhaedar 5 13:04:00 10.5, 11.2, 10.4, 21.0 12.24 40, 51, 44, 44, 49 (Avg:47)
59 Christine Froebel Mulawa True Grit 6 13:12:00 10.1, 11.7, 11.1, 17.7 12.12 36, 42, 53, 55, 52 (Avg:50)
238 Karen Lee Wertaloona Lionel 7 13:29:00 10.6, 11.1, 9.4, 20.8 11.87 32, 40, 45, 46, 42 (Avg:43)
205 Anne Orgill Salem Shelmal 7 13:29:00 10.8, 10.8, 9.9, 19.3 11.87 33, 45, 44, 48, 45 (Avg:45)
214 Barbara Macdonald Kildara Sharina 9 13:48:00 10.4, 11.2, 9.5, 17.9 11.59 32, 40, 54, 52, 56 (Avg:50)
244 Gayle Holmes Faraway Verdict 10 13:50:00 9.4, 9.9, 10.6, 22.0 11.57 28, 42, 48, 52, 56 (Avg:49)
106 Alan Lindsay Burremah Djerribindo 10 13:50:00 8.9, 10.6, 10.5, 22.2 11.57 33, 45, 48, 38, 41 (Avg:43)
131 John Baker Baskowa Tyson 12 14:03:00 8.2, 9.4, 11.9, 24.9 11.39 36, 42, 42, 50, 49 (Avg:45)
75 Andrew Paton Windsor Park Saam 13 14:14:00 9.0, 9.3, 11.5, 19.5 11.24 36, 43, 40, 50, 50 (Avg:45)
123 Allan Caslick Richard 14 14:38:00 10.1, 11.7, 13.1, 9.4 10.93 35, 41, 52, 59, 57 (Avg:52)
199 Graeme Seath Nugget 15 14:40:00 6.6, 11.3, 11.9, 22.4 10.91 30, 44, 48, 44, 40 (Avg:44)
67 Katelyn Walker Parlour Mountain Kelly 16 14:49:00 8.0, 9.5, 11.7, 17.6 10.80 32, 45, 50, 44, 47 (Avg:46)
33 Richard Newberry Khahlypso 17 14:57:00 8.1, 9.9, 10.5, 17.9 10.70 34, 48, 41, 45, 43 (Avg:44)
159 Ron Males Ralvon Grace 18 14:58:00 9.3, 9.4, 10.1, 15.9 10.69 39, 46, 45, 48, 47 (Avg:46)
136 Kristianne Kalen Chalbury Park Fashaan 19 15:11:00 8.0, 9.5, 10.1, 19.0 10.54 28, 39, 41, 48, 43 (Avg:42)
1 Peter John Bradford Shetan 20 15:18:00 7.8, 9.8, 10.2, 18.0 10.46 29, 40, 43, 48, 53 (Avg:46)
241 Len Law Deltry's Boy 21 15:25:00 7.8, 9.9, 9.6, 18.6 10.38 34, 45, 43, 49, 48 (Avg:46)
204 Erica Williams Sharahd Friday 22 15:30:00 7.8, 9.7, 10.3, 16.5 10.32 26, 40, 44, 42, 42 (Avg:42)
86 Rachel Harvey-Shore Judstan Kamaran 23 16:00:00 8.0, 9.4, 9.6, 14.9 10.00 36, 48, 51, 53, 50 (Avg:50)
181 Ian Rooney Kelkette Park Dominic 24 16:02:00 9.3, 10.0, 8.9, 12.1 9.98 31, 46, 52, 54, 56 (Avg:52)
77 Bob Godbee Bremervale Kossak 25 16:07:00 8.5, 8.9, 10.0, 13.4 9.93 28, 40, 44, 42, 40 (Avg:41)
78 Margaret Godbee Aloha Baraki 25 16:07:00 8.6, 8.8, 10.0, 13.4 9.93 28, 40, 43, 44, 47 (Avg:43)
257 Doug Lockhart Ralvon Ingrid 27 16:30:00 7.0, 9.3, 9.7, 16.5 9.70 36, 40, 42, 38, 38 (Avg:39)
12 Wayne Francis Cheekochee 28 16:41:00 6.7, 9.2, 9.9, 16.7 9.59 30, 44, 49, 47, 43 (Avg:45)
255 David Sulzberger Sayida Cleo 29 16:49:00 7.8, 9.5, 8.4, 14.3 9.51 29, 41, 44, 41, 40 (Avg:41)
254 Claude Filleul Silver Cloud Fadlinger 30 16:49:02 7.8, 9.5, 8.4, 14.3 9.51 44, 45, 59, 52, 44 (Avg:50)
207 Jim Wells Ausden Silver Sparkle 31 16:55:00 7.3, 10.0, 9.9, 11.3 9.46 34, 42, 44, 47, 50 (Avg:45)
25 Kay Waldau Trelowarren Tinsel 32 16:58:00 8.3, 10.2, 8.5, 11.1 9.43 39, 53, 48, 56, 56 (Avg:53)
103 Terry Wood Andarra Shareef 33 17:02:00 7.1, 8.9, 9.6, 14.2 9.39 34, 44, 43, 54, 42 (Avg:45)
135 Philippa Davis Santarabia Raskalla 34 17:12:00 8.6, 8.2, 8.8, 12.4 9.30 40, 48, 50, 48, 47 (Avg:48)
104 Kavin Hadlow Deakin Blue 35 17:23:00 7.0, 8.5, 9.3, 14.5 9.20 27, 43, 48, 56, 51 (Avg:49)
20 Julie Steiner Waterford Irette 35 17:23:00 7.8, 8.1, 8.6, 14.2 9.20 26, 48, 46, 48, 45 (Avg:46)
202 Jack Joynson Montgomery 37 17:29:00 7.9, 7.7, 8.9, 13.7 9.15 46, 46, 45, 49, 47 (Avg:46)
175 Louise McCormack Matta Mia Firebird 37 17:29:00 7.9, 7.7, 8.9, 13.7 9.15 31, 44, 47, 46, 42 (Avg:44)
195 Hans Peuker Vacari 39 17:34:00 7.4, 8.4, 9.7, 12.0 9.11 24, 35, 39, 40, 36 (Avg:37)
231 Darrell Clifford Abhu Hamir 40 17:37:00 5.8, 8.9, 10.3, 15.7 9.08 33, 48, 37, 40, 40 (Avg:41)
210 Ray Vlad Blaze 40 17:37:00 5.8, 9.0, 10.3, 15.7 9.08 26, 35, 37, 42, 39 (Avg:38)
32 David Roberts Star Of Shalom 42 17:51:00 9.0, 7.7, 8.6, 11.0 8.96 32, 38, 39, 39, 35 (Avg:37)
144 Karen Milligen Glenallan Sylvia 43 17:58:00 6.6, 8.9, 10.1, 11.2 8.91 33, 40, 46, 47, 44 (Avg:44)
89 Ruth Van der Wegen Sairdi Kyser 44 18:05:00 7.6, 8.4, 8.0, 12.7 8.85 38, 40, 48, 47, 48 (Avg:45)
243 Robin Van der Wegen Boomerang Desert Fortune 44 18:05:00 7.3, 8.5, 8.2, 12.7 8.85 34, 49, 53, 52, 50 (Avg:51)
64 Cheryl Mackander Blue Clint 46 18:10:00 6.9, 9.1, 9.1, 10.7 8.81 32, 45, 48, 56, 45 (Avg:48)
226 Karen Johanson Revenden Shikari 47 18:12:00 7.5, 7.6, 9.1, 11.9 8.79 29, 46, 50, 48, 41 (Avg:46)
203 Dean Stephen Picadilly Excelsea 47 18:12:00 7.5, 7.6, 9.1, 11.9 8.79 40, 44, 53, 53, 38 (Avg:47)
60 David Evans Jason 49 18:14:00 6.8, 8.9, 8.6, 12.1 8.78 46, 43, 47, 45, 43 (Avg:44)
7 Jack Boswell Blue 50 18:15:00 6.7, 8.3, 9.3, 12.3 8.77 38, 50, 47, 50, 50 (Avg:49)
124 Robyn Coombes Gatcombe Park Ka-Mia 50 18:15:00 7.5, 8.5, 8.1, 11.8 8.77 42, 43, 45, 48, 44 (Avg:45)
143 Nicki Ogilvie Whiskers Hill Pheobe 50 18:15:00 8.3, 7.1, 8.6, 12.4 8.77 36, 39, 40, 42, 40 (Avg:40)
101 Sandra Price Barkala Quondong 50 18:15:00 7.5, 8.5, 8.1, 11.8 8.77 34, 41, 40, 42, 40 (Avg:40)
166 Stuart Hitchcock Flash-Lite 54 18:15:02 7.2, 7.9, 9.4, 11.4 8.77 32, 52, 49, 48, 44 (Avg:48)
200 Maureen Feltham Toshiba 55 18:16:00 8.0, 7.2, 8.8, 12.2 8.76 40, 55, 58, 54, 48 (Avg:53)
162 Judith Burton Abbeline Chantel 56 18:18:00 6.1, 7.5, 9.6, 17.2 8.74 38, 42, 40, 40, 41 (Avg:40)
180 Sue Parsons Karumba Travellers Joy 57 18:24:00 6.5, 8.1, 9.1, 13.0 8.70 30, 41, 40, 40, 38 (Avg:39)
108 Brian Sheppard Prince 58 18:26:00 8.2, 9.5, 6.7, 11.4 8.68 34, 40, 50, 43, 38 (Avg:42)
152 Betty Cowdery Kimbraha Intruder 59 18:31:00 7.0, 8.4, 9.0, 10.7 8.64 34, 46, 39, 52, 52 (Avg:47)
52 Bill Barrett Amadah 60 18:35:00 8.1, 7.6, 8.8, 10.0 8.61 32, 49, 52, 55, 53 (Avg:52)
34 Gavin Barclay Tarus 61 18:37:00 6.6, 7.2, 9.5, 13.6 8.59 38, 52, 45, 48, 46 (Avg:47)
134 Ian Burns H-bar Askador 62 18:44:00 9.0, 8.8, 7.7, 8.5 8.54 40, 45, 52, 48, 46 (Avg:47)
158 Noel Morrow Trooper 63 18:45:00 9.0, 7.0, 8.0, 10.8 8.53 26, 38, 47, 46, 42 (Avg:43)
177 Julia Gauci Sharahd Houdini 64 18:47:00 7.2, 7.6, 8.5, 11.8 8.52 40, 41, 48, 48, 42 (Avg:44)
153 Chris Cheney Coolaroo Samson 65 18:51:00 6.7, 7.1, 8.9, 14.0 8.49 31, 45, 55, 55, 48 (Avg:50)
189 June Kenton Slick Venus 66 19:03:00 5.9, 7.9, 9.5, 12.9 8.40 36, 50, 48, 46, 48 (Avg:48)
196 Bryan Dupuy Splash 67 19:06:00 7.3, 7.1, 8.0, 12.7 8.38 35, 48, 52, 50, 52 (Avg:50)
149 Gillian Peirce Jasmer Park Misty Morn 67 19:06:00 6.7, 8.2, 8.6, 10.8 8.38 42, 41, 48, 40, 42 (Avg:42)
48 Melanie O'Flynn Piedy 69 19:26:00 6.6, 7.3, 8.8, 11.5 8.23 41, 44, 52, 47, 44 (Avg:46)
165 Louise Martin Shar-nee Tyson 70 19:58:00 7.2, 6.7, 7.8, 11.7 8.01 40, 48, 52, 56, 50 (Avg:51)
157 Karen Rhodes Barrys Buzz 71 19:58:01 6.8, 7.0, 8.5, 10.5 8.01 28, 48, 48, 45, 44 (Avg:46)
174 Mark Hughes Franklin Shamir 72 20:02:00 5.6, 7.4, 8.8, 13.2 7.99 42, 54, 56, 53, 47 (Avg:52)
176 Dorothy Hughes Eden Leigh Emir Dynamite 73 20:02:01 5.6, 7.4, 8.8, 13.2 7.99 38, 54, 49, 52, 48 (Avg:50)
71 Bernice King Buckaroo Diamond 74 20:06:00 5.6, 7.3, 8.2, 14.4 7.96 31, 53, 40, 56, 46 (Avg:48)
51 Kathryn Dyason Kea 75 20:10:00 6.3, 7.5, 7.5, 11.9 7.93 32, 48, 50, 46, 47 (Avg:47)
29 Douglas Gregg Chaka Zulu 76 20:13:00 6.6, 6.9, 7.7, 12.2 7.91 42, 49, 52, 46, 45 (Avg:48)
16 Ken Clarke Scotty 77 20:15:00 7.8, 5.9, 7.6, 12.3 7.90 33, 47, 55, 48, 42 (Avg:48)
85 Amy Gooch Shabin 78 20:24:00 5.6, 7.2, 8.8, 12.1 7.84 33, 32, 44, 45, 43 (Avg:41)
188 Cathy Preston Terama Ace High 79 20:25:00 4.9, 7.6, 9.6, 13.4 7.84 32, 48, 54, 56, 56 (Avg:53)
245 Geoff Grummitt Moon Boy 80 20:31:00 5.8, 7.1, 8.1, 12.8 7.80 36, 51, 44, 47, 48 (Avg:47)
246 Di Kajar Lyndus Lad 80 20:31:00 5.9, 7.0, 8.1, 12.8 7.80 34, 46, 46, 46, 46 (Avg:46)
91 Nicki Mantova Santarabia Manixy 82 20:43:00 5.8, 7.2, 7.9, 11.8 7.72 44, 45, 47, 48, 40 (Avg:45)
127 Julie Reay Buffer 82 20:43:00 5.9, 7.2, 7.9, 11.8 7.72 35, 40, 39, 52, 38 (Avg:42)
139 Daniel Mannix Blue Lame L4 0:00:00 8.2, 8.6, 8.7, 12.7 - 34, 48, 42, 44, 41 (Avg:43)
237 Derek Armitage Barbaree Sioll Lame L3 0:00:00 10.6, 12.0, 16.2 - 36, 45, 56, 58 (Avg:53)
225 Paul Brown Talisman Gamin Withdrawn L3 0:00:00 - - 32, 39, 44, 37 (Avg:40)
125 David Campbell Cudglebar Kilbride Heart Rate L3 0:00:00 10.5, 10.8, 11.9 - 36, 50, 53, 65 (Avg:56)
126 Aimee Campbell Bundy Withdrawn L3 0:00:00 - - 36, 50, 52, 50 (Avg:50)
212 Jim Farr Sharahd Cassandra Lame L3 0:00:00 10.4, 11.2, 9.5 - 38, 54, 49, 50 (Avg:51)
83 Kieran Kelly Bush Ballad Najaf Withdrawn L3 0:00:00 - - 31, 42, 44, 48 (Avg:44)
160 Tracee Males Faraway Vivien Lame L3 0:00:00 8.6, 7.7, 9.7 - 31, 45, 46, 44 (Avg:45)
209 Bruce Seaward Zeya Withdrawn L3 0:00:00 - - 28, 39, 42, 40 (Avg:40)
18 Dick Shillabeer Heavy Metal Lame L3 0:00:00 5.6, 6.8, 8.3 - 36, 47, 48, 52 (Avg:49)
36 Alan Slater Weerina Silver Prince Lame L3 0:00:00 7.8, 10.6, 11.2 - 32, 40, 41, 42 (Avg:41)
66 Matthew Walker Rambo Lame L3 0:00:00 8.0, 19.0, 36.9 - 35, 50, 55, 58 (Avg:54)
179 Julie Woods Gable Lame L3 0:00:00 8.1, 10.2, 11.1 - 28, 48, 48, 56 (Avg:50)
258 Allan Wyllie K9 Lame L3 0:00:00 8.2, 11.5, 10.7 - 32, 40, 44, 49 (Avg:44)
30 Chris Boocock Maralinga Minstrel Metabolics severe L2 0:00:00 10.6, 12.7 - 40, 43, 56 (Avg:49)
230 Joyce Corbett Lima Monfaraz Lame L2 0:00:00 8.3, 9.5 - 39, 48, 52 (Avg:50)
121 Mark Freeman Cedar Ridge Rob Roy Lame L2 0:00:00 9.0, 11.4 - 36, 38, 43 (Avg:40)
98 Andrew Gleeson Tristram Kabir-hamra Lame L2 0:00:00 7.8, 10.6 - 40, 52, 58 (Avg:55)
62 Searle Johnston Shinda Lame L2 0:00:00 8.6, 10.3 - 32, 50, 48 (Avg:49)
201 Lucy Joynson Lyle Lame L2 0:00:00 7.9, 7.6 - 28, 40, 47 (Avg:43)
37 Andrea Mason Ambrose Lame L2 0:00:00 7.8, 10.5 - 34, 45, 50 (Avg:47)
173 Hazel McCort Franklin Nazir Lame L2 0:00:00 7.8, 9.5 - 35, 44, 50 (Avg:47)
53 Jan Neal Flamizak Lame L2 0:00:00 9.1, 9.1 - 32, 50, 55 (Avg:52)
217 John Stewart Kai Hai Liciashahn Heart Rate L2 0:00:00 5.8, 7.1 - 32, 53, 66 (Avg:59)
107 Faye Stockley Glenallan Baldy Lame L2 0:00:00 7.1, 6.8 - 32, 44, 49 (Avg:46)
55 Denise Trollope Churinga Babooshka Heart Rate L2 0:00:00 8.5, 7.8 - 32, 54, 64 (Avg:59)
116 Ralph Turnbull Elexis Lame L2 0:00:00 4.9, 7.5 - 31, 40, 46 (Avg:43)
194 Kylie Whitelaw Triple L Aces Venture Lame L2 0:00:00 6.7, 7.4 - 44, 44, 52 (Avg:48)
84 Lyn Bailey Lyndrian Arion Heart Rate L1 0:00:00 7.2 - 28, 63 (Avg:63)
141 Shirley Beresford Bantonair Lame L1 0:00:00 6.6 - 40, 47 (Avg:47)
117 Robin Cameron Rodney Lame L1 0:00:00 7.5 - 36, 48 (Avg:48)
122 Marie De-Monchaux Kelkette Park Ibn Khazelle Lame L1 0:00:00 6.3 - 48, 48 (Avg:48)
172 Kevin Ford Eurunderee Tollemy Lame L1 0:00:00 5.6 - 34, 50 (Avg:50)
147 Murray Fox Tarrangower Irish Monarch Lame L1 0:00:00 6.7 - 44, 46 (Avg:46)
182 Jo-Anne Francis Gimli Lame L1 0:00:00 6.7 - 37, 36 (Avg:36)
40 Manniq Gall Nellie Boswell Heart Rate L1 0:00:00 8.4 - 36, 58 (Avg:58)
56 Marj Gardner Bara Park Prince Lame L1 0:00:00 8.4 - 40, 54 (Avg:54)
3 Barry Gore Leets Valley Timmy Lame L1 0:00:00 7.0 - 32, 34 (Avg:34)
14 David Grace Larabon Faidim Heart Rate L1 0:00:00 7.8 - 38, 62 (Avg:62)
228 Ron Haigh Zamfir Lame L1 0:00:00 10.8 - 40, 51 (Avg:51)
10 Ian Harris Merava Heart Rate L1 0:00:00 8.4 - 39, 80 (Avg:80)
187 Sally Holmes Karumba Gemma Heart Rate L1 0:00:00 6.5 - 46, 60 (Avg:60)
118 Lorraine Howarth Peppersfield Mallo Lame L1 0:00:00 10.5 - 34, 55 (Avg:55)
142 Mark Johnson Pelican Withdrawn L1 0:00:00 - - 40
41 Naomi Johnson Doc Withdrawn L1 0:00:00 - - 32, 38 (Avg:38)
43 Jenny Oliver Karakatana Kyzyl Lame L1 0:00:00 10.8 - 26, 45 (Avg:45)
45 Kieron Power Macquarie Gate Kadence Lame L1 0:00:00 5.7 - 33, 52 (Avg:52)
81 Brian Rooney Pasadena Legionaire Heart Rate L1 0:00:00 7.0 - 42, 60 (Avg:60)
49 Paul Sheils El Visto Marengo Heart Rate L1 0:00:00 6.6 - 36, 60 (Avg:60)
50 Warwick Sinfield Dashanda Sabaya Heart Rate L1 0:00:00 8.0 - 32, 61 (Avg:61)
27 Susan Smith Pine Vista Caboo Withdrawn L1 0:00:00 - - 30, 40 (Avg:40)
102 Cheryl Strachan Dunwingeri Djerada Withdrawn L1 0:00:00 - - 37, 42 (Avg:42)
128 John Symons Roxy Lame L1 0:00:00 6.9 - 42, 48 (Avg:48)
92 Elisabeth Thorn Smokey Arrow Heart Rate L1 0:00:00 7.2 - 32, 62 (Avg:62)
137 Stephen Zonneveld Exotic Danger Lame L1 0:00:00 8.0 - 29, 48 (Avg:48)
154 Caroline Bold Gaziya Withdrawn P/R 0:00:00 - - 0
213 Gem Butler Quarry Lame P/R 0:00:00 - - 31
184 Melva Keep Doran Park Minder Lame P/R 0:00:00 - - 34
161 Wendy McLehose Ragalee Withdrawn P/R 0:00:00 - - 0
100A Wendy Phillips Tao Withdrawn P/R 0:00:00 - - 36
15 Vivian Turner Egypt Lame P/R 0:00:00 - - 36
Lightweight
95 Sonia Bonham Santarabia Mazra 1 12:23:00 9.4, 10.8, 13.7, 25.5 12.92 32, 43, 47, 50, 48 (Avg:47)
198 Meg Wade Glenallan Shieda 2 12:57:00 10.3, 11.3, 13.1, 15.7 12.36 36, 37, 44, 54, 41 (Avg:44)
229 Anne Jones Marengo Buznin 3 13:04:00 10.5, 11.2, 10.4, 21.0 12.24 3, 42, 42, 44, 50 (Avg:44)
115 David Symons Tarkhim Shar Nahanni 4 13:29:00 8.1, 19.6, 7.7, 28.5 11.87 32, 42, 42, 44, 48 (Avg:44)
211 Bronwyn James Sharahd Brown Mystery 5 13:48:00 10.4, 11.2, 9.5, 17.9 11.59 30, 41, 50, 52, 45 (Avg:47)
224 Leanne McLaughlin Kharossan Rimini 6 13:50:00 9.3, 10.2, 10.4, 22.0 11.57 38, 43, 48, 46, 50 (Avg:46)
138 Vanessa Bohm Blue Dominance 7 14:23:00 9.1, 9.1, 10.9, 19.8 11.12 32, 42, 44, 49, 42 (Avg:44)
197 Sally Cowan Charlies Girl 8 14:56:00 8.5, 7.8, 12.1, 21.4 10.71 29, 37, 40, 42, 39 (Avg:39)
167 Emma Fletcher Engalla Harlequin 9 16:24:00 7.3, 8.7, 9.7, 17.3 9.76 39, 42, 51, 45, 44 (Avg:45)
256 Jennie Stafford Coolahlee Park Saydor 10 16:49:00 7.8, 9.5, 8.5, 14.2 9.51 35, 48, 50, 43, 44 (Avg:46)
23 Lynette Wells Tarrendene Tessa 11 16:55:00 7.3, 10.0, 9.9, 11.3 9.46 34, 49, 52, 57, 48 (Avg:51)
133 David Forrester Raine 12 17:21:00 7.3, 8.6, 9.1, 13.5 9.22 32, 53, 52, 48, 52 (Avg:51)
221 Michael Gabriel Sharahd Caddie 13 17:37:00 6.2, 8.8, 10.2, 14.1 9.08 42, 41, 44, 44, 36 (Avg:41)
239 Jo Hamilton-Branigan Charabal Amarita 13 17:37:00 5.8, 8.9, 10.3, 15.7 9.08 36, 42, 44, 43, 38 (Avg:41)
100 Gabrielle Pennington Gedye Affection 13 17:37:00 7.3, 8.1, 9.7, 12.5 9.08 36, 42, 43, 50, 49 (Avg:46)
72 Larissa Woolbank Fleetwood Nefisa 16 17:58:00 7.9, 8.3, 8.6, 11.2 8.91 29, 42, 40, 41, 35 (Avg:39)
82 Ben Watts Misty 17 18:15:00 5.6, 9.0, 11.0, 12.6 8.77 30, 42, 41, 40, 36 (Avg:39)
17 Robyn Lindholm Gypsypark Cavalcade 18 18:27:00 7.1, 7.9, 8.9, 11.7 8.67 34, 39, 40, 38, 36 (Avg:38)
24 Anne Moseley Beau 19 19:03:00 6.1, 8.0, 8.9, 12.9 8.40 31, 46, 45, 49, 46 (Avg:46)
13 Jean Morton Jadelle 20 19:07:00 6.7, 7.4, 8.5, 12.6 8.37 40, 49, 48, 47, 46 (Avg:47)
112 Louise Stevens Wincar Talya 21 19:26:00 5.8, 8.4, 8.9, 11.5 8.23 29, 36, 36, 48, 34 (Avg:38)
178 Joyce Pilkington Karumba Cassidy 22 19:41:00 5.7, 7.9, 8.9, 12.4 8.13 39, 40, 47, 49, 45 (Avg:45)
183 Richard Pollard Mackellar 22 19:41:00 5.7, 7.9, 8.9, 12.4 8.13 45, 37, 52, 58, 45 (Avg:48)
119 Kristen Proudfoot Haraka was was Gar.04543 24 20:10:00 6.6, 6.8, 8.0, 11.8 7.93 40, 38, 40, 41, 38 (Avg:39)
234 Bruce Everson Eversofar 25 20:13:00 6.7, 7.1, 7.3, 12.2 7.91 32, 45, 45, 47, 42 (Avg:44)
235 Sue Rhodes Shaiyana 25 20:13:00 6.7, 7.1, 7.3, 12.2 7.91 30, 47, 45, 43, 42 (Avg:44)
250 Ken Stephens Sandy 27 20:20:00 5.8, 7.2, 8.3, 12.5 7.87 36, 39, 42, 48, 50 (Avg:44)
44 Sheila Rattray Buster Boy 28 20:25:00 4.9, 7.6, 9.6, 13.4 7.84 32, 42, 49, 45, 46 (Avg:45)
170 Margaret Marchant Tally 29 20:45:00 5.0, 7.7, 8.9, 12.1 7.71 30, 44, 42, 44, 44 (Avg:43)
164 Carol Wendt Cardi Rizadis 29 20:45:00 5.0, 7.7, 9.0, 12.1 7.71 36, 40, 42, 45, 39 (Avg:41)
114 Jennifer Hargraves Charu Royal Harvest 31 20:48:00 4.9, 7.6, 9.1, 12.9 7.69 36, 42, 44, 44, 43 (Avg:43)
54 Fiona Meller Aljerer Lame L3 0:00:00 6.7, 8.2, 8.6 - 38, 40, 39, 45 (Avg:41)
190 Janet Hunter Windsong Nazar Lame L2 0:00:00 9.3, 10.0 - 30, 36, 40 (Avg:38)
220 Kerry Pickering Woodlands Cade Lame L2 0:00:00 6.2, 9.9 - 36, 44, 47 (Avg:45)
233 Sandra Pollitt Anstley Genghis Khan Lame L2 0:00:00 8.5, 9.8 - 36, 52, 53 (Avg:52)
38 Sharon Semen Fleur Lame L2 0:00:00 7.8, 9.7 - 42, 48, 45 (Avg:46)
6 Marie Shillabeer Cherry Lame L2 0:00:00 5.6, 6.8 - 50, 53, 50 (Avg:51)
156 Helen Brown Keishir Saleen Heart Rate L1 0:00:00 6.6 - 29, 60 (Avg:60)
8 Cherie Cowan Waitara Red Ned Lame L1 0:00:00 7.9 - 33, 36 (Avg:36)
99 Samantha Davy Arindor Charlie Brown Withdrawn L1 0:00:00 - - 48, 53 (Avg:53)
130 Cynthia Deakin Katice Heart Rate L1 0:00:00 9.0 - 34, 60 (Avg:60)
70 Virginia Dodson Amen Lame L1 0:00:00 7.9 - 35, 41 (Avg:41)
4 Saskia Klincke Killinchy Majestic Lame L1 0:00:00 7.5 - 30, 41 (Avg:41)
113 Lyndell McGowan Aberlene Park Montgomery Lame L1 0:00:00 7.5 - 32, 45 (Avg:45)
39 Shannell Shanks Elodie Heart Rate L1 0:00:00 6.2 - 33, 70 (Avg:70)
206 Helena South Lofty Lame L1 0:00:00 6.7 - 40, 48 (Avg:48)
96 Shane Anderson Rocky Lame P/R 0:00:00 - - 39
208 Vanessa Gaudard Sharahd Carah Withdrawn P/R 0:00:00 - - 31
31 Samantha Obrien Ajana Storm Angel Lame P/R 0:00:00 - - 38
171 Gillian Ryhorchuk Wamrums Moonlight Lame P/R 0:00:00 - - 34
Junior
218 Adam Garvin Everon Park Mujabbab 1 12:55:00 8.1, 10.5, 14.8, 26.6 12.39 34, 40, 42, 47, 48 (Avg:44)
19 Clare Waldau Maf-ue Topaz 2 13:01:00 8.3, 10.2, 14.8, 24.9 12.29 45, 46, 46, 50, 44 (Avg:46)
22 Kristy Heydon Yaldon Hanifa 3 13:33:00 9.0, 8.9, 14.8, 20.3 11.81 33, 39, 41, 48, 46 (Avg:43)
249 Nathan Peal Shareef 4 13:48:00 10.1, 11.4, 9.5, 18.3 11.59 36, 41, 42, 41, 48 (Avg:43)
145 Michelle Birrell Wagga Kinsingh 5 14:23:00 7.9, 9.6, 10.3, 29.6 11.12 38, 48, 48, 44, 46 (Avg:46)
97 Nathan Anderson Strauss 6 14:24:00 7.5, 10.4, 10.1, 30.3 11.11 32, 45, 53, 53, 60 (Avg:52)
129 Ian Symons Freeway 7 14:25:00 6.9, 10.4, 11.5, 28.9 11.10 40, 43, 51, 50, 50 (Avg:48)
168 Kim Hagon Champ 8 16:24:00 7.3, 8.6, 9.7, 17.3 9.76 36, 44, 45, 47, 45 (Avg:45)
28 Natalie Iles Laurjil Hagari 9 19:06:00 5.7, 8.5, 9.3, 12.4 8.38 40, 48, 60, 59, 56 (Avg:55)
94 Katryna Deudney Linden Ibn Hamarra Withdrawn L3 0:00:00 - - 32, 48, 46, 40 (Avg:44)
68 Melanie Tye Say-Go Lame L3 0:00:00 6.7, 7.1, 8.9 - 32, 40, 44, 46 (Avg:43)
240 Megan Law Pablo Withdrawn L2 0:00:00 - - 35, 44, 44 (Avg:44)
2 Belinda Caslick Jasper Lame L1 0:00:00 10.1 - 30, 38 (Avg:38)
232 Linc Clifford Killibinbin Infirad Lame L1 0:00:00 5.8 - 32, 36 (Avg:36)
21 Jason Haigh Alli Wolfie Lame L1 0:00:00 9.1 - 28, 44 (Avg:44)
109 Shawn Johnson Wallace Raeed Heart Rate L1 0:00:00 10.8 - 44, 59 (Avg:59)